Time;durP1;ratioP1;P1;durP2;ratioP2;P2;SDS_P1;SDS_P2;PMS_P1;PMS_P2;Temp;Humidity;BMP_temperature;BMP_pressure;BME280_temperature;BME280_humidity;BME280_pressure;Samples;Min_cycle;Max_cycle;Signal;HPM_P1;HPM_P2
2022/10/14 00:01:32;;;;;;;20.82;12.60;;;9.90;90.00;;;;;;1872840;77;21099;-55
2022/10/14 00:04:01;;;;;;;19.55;12.25;;;9.90;90.10;;;;;;1872766;75;21092;-54
2022/10/14 00:06:32;;;;;;;21.62;13.48;;;9.90;90.20;;;;;;1872841;75;21195;-56
2022/10/14 00:09:04;;;;;;;20.88;12.05;;;9.90;90.20;;;;;;1872845;76;21033;-54
2022/10/14 00:11:35;;;;;;;20.40;12.40;;;9.80;90.30;;;;;;1872785;76;21468;-54
2022/10/14 00:14:10;;;;;;;18.48;11.95;;;9.80;90.30;;;;;;1872776;77;21186;-56
2022/10/14 00:16:41;;;;;;;23.42;12.30;;;9.70;90.20;;;;;;1872948;76;21405;-54
2022/10/14 00:19:12;;;;;;;21.37;12.20;;;9.70;90.30;;;;;;1872737;77;21073;-55
2022/10/14 00:21:43;;;;;;;19.45;11.93;;;9.70;90.30;;;;;;1872818;76;21069;-53
2022/10/14 00:24:13;;;;;;;25.25;12.90;;;9.70;90.40;;;;;;1872869;77;21479;-56
2022/10/14 00:26:42;;;;;;;19.37;12.55;;;9.70;90.40;;;;;;1872786;77;21017;-56
2022/10/14 00:29:17;;;;;;;26.87;13.68;;;9.70;90.30;;;;;;1872687;77;20997;-56
2022/10/14 00:31:47;;;;;;;19.62;12.23;;;9.70;90.40;;;;;;1872924;77;21115;-56
2022/10/14 00:34:17;;;;;;;25.23;12.68;;;9.60;90.50;;;;;;1872723;76;21104;-56
2022/10/14 00:36:47;;;;;;;21.23;11.38;;;9.60;90.50;;;;;;1872852;77;21100;-55
2022/10/14 00:39:18;;;;;;;18.62;11.80;;;9.70;90.50;;;;;;1872299;76;21025;-56
2022/10/14 00:41:47;;;;;;;20.62;12.50;;;9.60;90.50;;;;;;1872773;77;21022;-55
2022/10/14 00:44:19;;;;;;;16.82;10.30;;;9.60;90.40;;;;;;1872726;75;21013;-55
2022/10/14 00:46:49;;;;;;;20.45;11.53;;;9.60;90.50;;;;;;1872790;77;21022;-55
2022/10/14 00:49:23;;;;;;;21.02;11.65;;;9.60;90.60;;;;;;1872747;76;21019;-55
2022/10/14 00:52:04;;;;;;;18.35;11.03;;;9.60;90.50;;;;;;1872890;77;21053;-56
2022/10/14 00:54:49;;;;;;;18.10;10.58;;;9.50;90.50;;;;;;1872777;76;21573;-56
2022/10/14 00:57:18;;;;;;;19.40;10.03;;;9.50;90.50;;;;;;1872741;75;21039;-56
2022/10/14 00:59:47;;;;;;;20.32;11.90;;;9.50;90.40;;;;;;1872859;77;21017;-56
2022/10/14 01:02:17;;;;;;;17.67;10.48;;;9.40;90.50;;;;;;1872801;77;21091;-55
2022/10/14 01:04:46;;;;;;;22.50;10.95;;;9.40;90.50;;;;;;1872975;77;21108;-57
2022/10/14 01:07:27;;;;;;;18.42;10.95;;;9.40;90.40;;;;;;1872759;75;21046;-57
2022/10/14 01:10:11;;;;;;;20.80;10.88;;;9.30;90.40;;;;;;1872317;77;20993;-56
2022/10/14 01:12:49;;;;;;;19.35;10.05;;;9.30;90.50;;;;;;1872848;77;21308;-56
2022/10/14 01:15:30;;;;;;;18.07;10.82;;;9.30;90.60;;;;;;1846803;77;21131;-55
2022/10/14 01:18:08;;;;;;;17.90;11.05;;;9.30;90.60;;;;;;1872036;77;21048;-56
2022/10/14 01:20:58;;;;;;;18.40;11.03;;;9.30;90.50;;;;;;1872859;77;21037;-56
2022/10/14 01:23:39;;;;;;;16.00;11.15;;;9.30;90.80;;;;;;1872705;77;21025;-56
2022/10/14 01:26:23;;;;;;;20.23;11.40;;;9.30;90.60;;;;;;1872805;77;21116;-56
2022/10/14 01:29:11;;;;;;;20.30;11.78;;;9.30;90.60;;;;;;1872796;77;21065;-54
2022/10/14 01:31:43;;;;;;;19.80;11.80;;;9.30;90.70;;;;;;1872740;76;21093;-54
2022/10/14 01:34:16;;;;;;;15.18;10.43;;;9.20;90.70;;;;;;1872765;77;21119;-57
2022/10/14 01:36:51;;;;;;;23.02;12.18;;;9.20;90.70;;;;;;1872631;76;21049;-56
2022/10/14 01:39:23;;;;;;;18.05;11.35;;;9.20;90.80;;;;;;1871636;77;21056;-57
2022/10/14 01:42:13;;;;;;;20.00;11.05;;;9.20;90.90;;;;;;1872791;77;21561;-56
2022/10/14 01:44:45;;;;;;;18.00;10.93;;;9.20;90.90;;;;;;1872524;77;21030;-57
2022/10/14 01:47:16;;;;;;;17.95;10.63;;;9.20;90.80;;;;;;1872716;77;21057;-55
2022/10/14 01:49:49;;;;;;;21.93;11.70;;;9.20;90.80;;;;;;1872804;77;21050;-56
2022/10/14 01:52:21;;;;;;;17.80;10.45;;;9.20;90.80;;;;;;1872559;76;21057;-57
2022/10/14 01:54:52;;;;;;;16.25;9.93;;;9.20;90.80;;;;;;1872402;77;21030;-55
2022/10/14 01:57:23;;;;;;;18.00;10.70;;;9.20;90.80;;;;;;1872732;77;21064;-54
2022/10/14 01:59:55;;;;;;;20.52;10.60;;;9.10;90.70;;;;;;1872702;77;21120;-57
2022/10/14 02:02:25;;;;;;;13.90;10.65;;;9.10;90.80;;;;;;1872813;77;20993;-56
2022/10/14 02:04:54;;;;;;;14.75;9.55;;;9.10;90.80;;;;;;1872673;77;21095;-55
2022/10/14 02:07:29;;;;;;;15.35;9.95;;;9.10;90.90;;;;;;1872816;75;21049;-56
2022/10/14 02:10:15;;;;;;;;;;;9.10;90.80;;;;;;1875568;76;21557;-56
2022/10/14 02:13:03;;;;;;;;;;;9.10;90.80;;;;;;1875621;76;20097;-56
2022/10/14 02:15:52;;;;;;;16.02;10.08;;;9.20;90.70;;;;;;1873005;76;20152;-56
2022/10/14 02:18:39;;;;;;;17.30;10.28;;;9.10;90.60;;;;;;1872948;77;21092;-54
2022/10/14 02:21:30;;;;;;;16.90;9.18;;;9.00;90.60;;;;;;1872919;76;21087;-57
2022/10/14 02:24:15;;;;;;;14.20;10.08;;;9.00;90.70;;;;;;1872340;77;21085;-56
2022/10/14 02:26:46;;;;;;;16.07;9.58;;;8.90;90.80;;;;;;1872525;77;21029;-56
2022/10/14 02:29:17;;;;;;;21.15;10.40;;;8.90;90.80;;;;;;1872855;76;21041;-57
2022/10/14 02:31:49;;;;;;;21.85;10.85;;;8.90;90.90;;;;;;1838895;77;21112;-57
2022/10/14 02:34:20;;;;;;;18.15;10.20;;;8.90;91.00;;;;;;1872808;75;21021;-57
2022/10/14 02:36:51;;;;;;;20.35;11.25;;;8.90;91.00;;;;;;1872808;77;21123;-56
2022/10/14 02:39:26;;;;;;;19.25;10.68;;;9.00;91.10;;;;;;1872771;77;21127;-56
2022/10/14 02:41:55;;;;;;;15.03;9.53;;;8.90;91.10;;;;;;1872440;77;21479;-56
2022/10/14 02:44:24;;;;;;;17.12;10.70;;;8.90;91.10;;;;;;1872796;77;21010;-56
2022/10/14 02:46:55;;;;;;;18.05;9.80;;;8.90;91.10;;;;;;1872929;77;21029;-55
2022/10/14 02:49:24;;;;;;;19.50;10.23;;;8.90;91.10;;;;;;1872824;77;21029;-57
2022/10/14 02:51:53;;;;;;;16.15;9.63;;;9.00;91.20;;;;;;1872851;76;21021;-56
2022/10/14 02:54:23;;;;;;;19.30;10.60;;;9.00;91.20;;;;;;1872782;77;21120;-57
2022/10/14 02:56:52;;;;;;;17.02;10.25;;;9.00;91.10;;;;;;1872756;77;21010;-56
2022/10/14 02:59:21;;;;;;;21.05;10.88;;;9.00;91.10;;;;;;1872807;76;21065;-56
2022/10/14 03:01:50;;;;;;;15.78;9.58;;;8.90;91.10;;;;;;1872784;76;21037;-57
2022/10/14 03:04:21;;;;;;;20.97;11.35;;;8.90;91.10;;;;;;1839078;77;21089;-53
2022/10/14 03:06:52;;;;;;;17.42;10.43;;;8.90;91.10;;;;;;1872601;76;21024;-56
2022/10/14 03:09:23;;;;;;;15.80;10.20;;;8.90;91.40;;;;;;1872697;75;21618;-57
2022/10/14 03:11:52;;;;;;;19.20;10.50;;;8.90;91.10;;;;;;1872789;76;21033;-56
2022/10/14 03:14:22;;;;;;;13.45;9.73;;;8.90;91.20;;;;;;1872893;76;21017;-55
2022/10/14 03:16:52;;;;;;;19.60;11.70;;;8.90;91.20;;;;;;1872795;77;21041;-56
2022/10/14 03:19:23;;;;;;;31.75;11.97;;;8.90;91.30;;;;;;1872575;76;21080;-56
2022/10/14 03:21:54;;;;;;;28.50;12.40;;;8.90;91.30;;;;;;1872653;76;21045;-56
2022/10/14 03:24:23;;;;;;;28.02;12.03;;;8.90;91.20;;;;;;1872747;77;21010;-56
2022/10/14 03:26:54;;;;;;;18.90;9.15;;;8.90;91.20;;;;;;1869082;76;21471;-56
2022/10/14 03:29:25;;;;;;;19.55;10.38;;;8.90;91.20;;;;;;1872136;77;21115;-56
2022/10/14 03:31:58;;;;;;;22.27;11.60;;;8.90;91.10;;;;;;1869508;77;21074;-56
2022/10/14 03:34:31;;;;;;;24.12;10.18;;;8.80;91.10;;;;;;1867758;77;21191;-56
2022/10/14 03:37:06;;;;;;;18.67;10.25;;;8.80;91.20;;;;;;1872334;77;21090;-55
2022/10/14 03:39:37;;;;;;;16.25;10.18;;;8.80;91.30;;;;;;1872913;77;21323;-55
2022/10/14 03:42:08;;;;;;;18.10;10.10;;;8.80;91.30;;;;;;1872716;77;21049;-56
2022/10/14 03:44:39;;;;;;;15.60;9.60;;;8.80;91.40;;;;;;1871828;77;21077;-56
2022/10/14 03:47:15;;;;;;;14.73;9.60;;;8.80;91.40;;;;;;1871811;77;21093;-56
2022/10/14 03:49:45;;;;;;;18.05;10.35;;;8.80;91.40;;;;;;1872737;77;21033;-55
2022/10/14 03:52:16;;;;;;;19.20;10.20;;;8.80;91.40;;;;;;1871357;77;21056;-56
2022/10/14 03:54:45;;;;;;;16.20;9.95;;;8.80;91.40;;;;;;1872902;76;21095;-55
2022/10/14 03:57:16;;;;;;;23.02;9.53;;;8.80;91.50;;;;;;1872950;77;21049;-55
2022/10/14 03:59:47;;;;;;;15.72;9.38;;;8.80;91.50;;;;;;1872024;77;21052;-54
2022/10/14 04:02:17;;;;;;;16.55;9.50;;;8.80;91.40;;;;;;1872865;76;21120;-56
2022/10/14 04:04:47;;;;;;;19.70;10.70;;;8.80;91.30;;;;;;1872799;77;21463;-55
2022/10/14 04:07:17;;;;;;;14.73;9.63;;;8.70;91.30;;;;;;1872920;76;21029;-54
2022/10/14 04:09:48;;;;;;;19.92;10.53;;;8.70;91.40;;;;;;1871945;76;21483;-56
2022/10/14 04:12:17;;;;;;;19.37;10.70;;;8.70;91.40;;;;;;1872863;77;21013;-55
2022/10/14 04:14:48;;;;;;;22.25;9.85;;;8.80;91.50;;;;;;1871650;76;21057;-56
2022/10/14 04:17:18;;;;;;;19.92;11.25;;;8.80;91.50;;;;;;1872757;77;21049;-56
2022/10/14 04:19:47;;;;;;;21.37;11.10;;;8.80;91.50;;;;;;1872789;76;21021;-55
2022/10/14 04:22:17;;;;;;;25.10;12.25;;;8.80;91.50;;;;;;1872736;77;21021;-56
2022/10/14 04:24:49;;;;;;;26.57;12.33;;;8.90;91.60;;;;;;1872255;75;21085;-56
2022/10/14 04:27:19;;;;;;;24.45;12.30;;;8.90;91.60;;;;;;1872745;76;21030;-56
2022/10/14 04:29:52;;;;;;;18.80;10.85;;;8.90;91.60;;;;;;1870848;76;21084;-56
2022/10/14 04:32:22;;;;;;;22.87;11.70;;;8.90;91.50;;;;;;1871843;76;21620;-56
2022/10/14 04:34:53;;;;;;;27.42;13.18;;;8.90;91.50;;;;;;1872726;77;21515;-56
2022/10/14 04:37:23;;;;;;;24.43;12.53;;;8.90;91.50;;;;;;1872741;77;21030;-56
2022/10/14 04:40:06;;;;;;;35.73;18.95;;;9.00;91.60;;;;;;1871987;75;21052;-55
2022/10/14 04:42:37;;;;;;;22.60;12.85;;;9.00;91.60;;;;;;1872033;76;21628;-56
2022/10/14 04:45:07;;;;;;;27.02;11.85;;;9.10;91.70;;;;;;1872686;77;21006;-55
2022/10/14 04:47:38;;;;;;;22.27;11.68;;;9.10;91.50;;;;;;1870880;76;21024;-56
2022/10/14 04:50:08;;;;;;;27.02;11.03;;;9.10;91.60;;;;;;1872664;76;21006;-56
2022/10/14 04:52:38;;;;;;;21.40;12.90;;;9.10;91.60;;;;;;1872621;77;21013;-55
2022/10/14 04:55:11;;;;;;;71.17;42.67;;;9.20;91.70;;;;;;1872233;76;21128;-55
2022/10/14 04:57:42;;;;;;;42.50;20.72;;;9.30;91.70;;;;;;1872512;76;21173;-57
2022/10/14 05:00:14;;;;;;;15.65;11.97;;;9.30;91.60;;;;;;1872655;77;21029;-54
2022/10/14 05:02:51;;;;;;;17.07;11.68;;;9.40;91.70;;;;;;1871893;76;21077;-54
2022/10/14 05:05:20;;;;;;;17.95;11.68;;;9.50;91.60;;;;;;1872627;75;21132;-56
2022/10/14 05:07:51;;;;;;;30.62;11.93;;;9.50;91.60;;;;;;1872453;76;21048;-56
2022/10/14 05:10:22;;;;;;;21.82;11.12;;;9.60;91.60;;;;;;1871237;75;21126;-55
2022/10/14 05:12:52;;;;;;;21.97;12.37;;;9.70;91.60;;;;;;1872616;77;21041;-55
2022/10/14 05:15:22;;;;;;;23.38;12.98;;;9.70;91.60;;;;;;1872621;77;21050;-56
2022/10/14 05:17:58;;;;;;;21.20;13.00;;;9.80;91.20;;;;;;1870096;77;21155;-54
2022/10/14 05:20:29;;;;;;;21.82;12.43;;;9.80;91.20;;;;;;1869118;77;21090;-56
2022/10/14 05:22:59;;;;;;;30.32;13.08;;;9.80;90.90;;;;;;1872562;77;21107;-55
2022/10/14 05:25:29;;;;;;;21.40;11.60;;;9.80;91.00;;;;;;1872628;77;21017;-55
2022/10/14 05:27:58;;;;;;;17.35;12.73;;;9.70;91.00;;;;;;1872393;76;21393;-57
2022/10/14 05:30:28;;;;;;;19.57;11.45;;;9.70;91.00;;;;;;1872639;76;21009;-55
2022/10/14 05:32:57;;;;;;;17.67;10.78;;;9.70;91.00;;;;;;1872710;77;21037;-56
2022/10/14 05:35:26;;;;;;;25.23;11.35;;;9.70;91.10;;;;;;1872576;77;21037;-56
2022/10/14 05:37:56;;;;;;;20.40;12.07;;;9.70;91.20;;;;;;1872647;77;21018;-55
2022/10/14 05:40:25;;;;;;;16.37;11.22;;;9.70;91.10;;;;;;1872643;76;21448;-56
2022/10/14 05:42:55;;;;;;;21.90;12.00;;;9.70;91.10;;;;;;1872604;75;21144;-56
2022/10/14 05:45:25;;;;;;;20.12;12.25;;;9.70;91.10;;;;;;1872835;76;20994;-56
2022/10/14 05:47:54;;;;;;;18.85;12.43;;;9.60;91.20;;;;;;1872724;77;21026;-56
2022/10/14 05:50:24;;;;;;;23.92;12.07;;;9.60;91.20;;;;;;1872715;76;21021;-56
2022/10/14 05:52:54;;;;;;;18.48;12.10;;;9.60;91.20;;;;;;1872529;76;21076;-55
2022/10/14 05:55:25;;;;;;;22.27;12.07;;;9.70;91.20;;;;;;1872441;77;21052;-55
2022/10/14 05:57:57;;;;;;;24.05;14.25;;;9.70;91.20;;;;;;1872444;77;21027;-55
2022/10/14 06:00:27;;;;;;;20.52;14.73;;;9.70;91.20;;;;;;1872231;77;21005;-56
2022/10/14 06:02:58;;;;;;;25.12;15.03;;;9.70;91.20;;;;;;1872547;76;21041;-56
2022/10/14 06:05:28;;;;;;;33.08;15.60;;;9.70;91.30;;;;;;1872712;76;21033;-55
2022/10/14 06:07:57;;;;;;;21.85;14.15;;;9.80;91.30;;;;;;1872652;76;21037;-55
2022/10/14 06:10:27;;;;;;;27.37;13.68;;;9.80;91.30;;;;;;1883842;76;21154;-56
2022/10/14 06:12:57;;;;;;;30.15;15.43;;;9.80;91.20;;;;;;1891436;76;21041;-56
2022/10/14 06:15:27;;;;;;;23.50;14.07;;;9.80;91.40;;;;;;1891458;75;21113;-56
2022/10/14 06:17:56;;;;;;;20.55;13.48;;;9.90;91.40;;;;;;1891470;76;21020;-56
2022/10/14 06:20:27;;;;;;;23.18;13.60;;;10.00;91.40;;;;;;1891552;76;21048;-56
2022/10/14 06:22:56;;;;;;;24.27;15.20;;;10.00;91.30;;;;;;1891371;76;21008;-56
2022/10/14 06:25:25;;;;;;;20.37;13.78;;;10.10;91.30;;;;;;1891440;76;21423;-56
2022/10/14 06:27:54;;;;;;;30.37;15.28;;;10.10;91.30;;;;;;1891411;76;21036;-56
2022/10/14 06:30:23;;;;;;;23.25;14.53;;;10.20;91.30;;;;;;1891534;76;21075;-56
2022/10/14 06:32:53;;;;;;;21.25;14.13;;;10.20;91.10;;;;;;1891413;76;21521;-56
2022/10/14 06:35:22;;;;;;;27.42;15.13;;;10.30;91.10;;;;;;1891523;76;21044;-56
2022/10/14 06:37:51;;;;;;;20.97;14.28;;;10.30;91.10;;;;;;1891408;76;21098;-54
2022/10/14 06:40:21;;;;;;;22.15;14.35;;;10.30;91.20;;;;;;1891451;76;20992;-56
2022/10/14 06:42:51;;;;;;;26.40;15.63;;;10.40;91.20;;;;;;1891546;76;21028;-56
2022/10/14 06:45:20;;;;;;;22.77;13.68;;;10.50;91.20;;;;;;1891479;76;21040;-56
2022/10/14 06:47:49;;;;;;;34.73;14.38;;;10.50;90.90;;;;;;1891372;76;21103;-55
2022/10/14 06:50:18;;;;;;;22.77;14.65;;;10.60;90.90;;;;;;1891358;76;21032;-56
2022/10/14 06:52:48;;;;;;;30.05;15.10;;;10.60;90.60;;;;;;1891422;76;21036;-55
2022/10/14 06:55:17;;;;;;;39.70;16.35;;;10.60;90.70;;;;;;1891376;76;21113;-55
2022/10/14 06:57:46;;;;;;;24.12;15.25;;;10.60;90.50;;;;;;1891631;75;21516;-56
2022/10/14 07:00:16;;;;;;;31.97;15.20;;;10.70;90.60;;;;;;1891403;76;20992;-55
2022/10/14 07:02:45;;;;;;;31.15;16.75;;;10.70;90.60;;;;;;1891453;76;21118;-56
2022/10/14 07:05:14;;;;;;;29.67;17.70;;;10.70;90.50;;;;;;1891401;76;21463;-55
2022/10/14 07:07:43;;;;;;;31.90;15.35;;;10.70;90.40;;;;;;1891624;76;21063;-55
2022/10/14 07:10:13;;;;;;;24.70;14.30;;;10.80;90.50;;;;;;1891315;76;21051;-56
2022/10/14 07:12:42;;;;;;;21.95;14.58;;;10.80;90.60;;;;;;1891451;76;21047;-56
2022/10/14 07:15:12;;;;;;;23.15;13.75;;;10.80;90.70;;;;;;1891499;76;21052;-55
2022/10/14 07:17:41;;;;;;;25.62;13.48;;;10.80;90.50;;;;;;1891356;76;21118;-54
2022/10/14 07:20:11;;;;;;;25.92;13.38;;;10.90;90.50;;;;;;1891539;76;21012;-55
2022/10/14 07:22:40;;;;;;;29.75;16.32;;;11.00;90.50;;;;;;1891518;76;21008;-56
2022/10/14 07:25:10;;;;;;;27.13;15.32;;;11.00;90.40;;;;;;1891339;76;21059;-55
2022/10/14 07:27:39;;;;;;;25.62;15.10;;;11.00;90.40;;;;;;1891490;76;21106;-56
2022/10/14 07:30:09;;;;;;;22.65;14.38;;;11.00;90.40;;;;;;1891360;76;21028;-56
2022/10/14 07:32:38;;;;;;;27.15;14.55;;;11.00;90.20;;;;;;1891451;76;21014;-56
2022/10/14 07:35:07;;;;;;;20.30;12.78;;;11.10;90.30;;;;;;1891460;76;21035;-54
2022/10/14 07:37:37;;;;;;;21.85;12.55;;;11.10;90.20;;;;;;1891366;76;20993;-55
2022/10/14 07:40:07;;;;;;;26.10;14.25;;;11.10;90.00;;;;;;1891499;76;21008;-55
2022/10/14 07:42:36;;;;;;;22.50;13.30;;;11.10;89.40;;;;;;1891490;76;21028;-55
2022/10/14 07:45:06;;;;;;;23.77;13.13;;;11.10;90.00;;;;;;1891429;76;21089;-55
2022/10/14 07:47:35;;;;;;;20.72;12.68;;;11.10;89.30;;;;;;1891382;76;21089;-55
2022/10/14 07:50:04;;;;;;;18.12;12.80;;;11.10;89.70;;;;;;1891464;76;21044;-55
2022/10/14 07:52:33;;;;;;;23.77;14.05;;;11.10;89.60;;;;;;1891446;76;21024;-55
2022/10/14 07:55:03;;;;;;;17.73;13.68;;;11.20;89.60;;;;;;1891397;76;21035;-55
2022/10/14 07:57:33;;;;;;;17.25;11.08;;;11.20;89.20;;;;;;1891365;76;21052;-54
2022/10/14 08:00:02;;;;;;;18.60;13.18;;;11.30;88.70;;;;;;1891379;76;21103;-56
2022/10/14 08:02:33;;;;;;;19.92;12.43;;;11.30;89.00;;;;;;1890357;75;21119;-55
2022/10/14 08:05:03;;;;;;;16.52;13.25;;;11.30;88.40;;;;;;1891472;76;21036;-54
2022/10/14 08:07:32;;;;;;;20.43;14.45;;;11.30;88.40;;;;;;1891649;76;21031;-56
2022/10/14 08:10:01;;;;;;;20.10;13.68;;;11.30;88.50;;;;;;1891482;76;21117;-56
2022/10/14 08:12:31;;;;;;;18.92;13.35;;;11.30;87.70;;;;;;1891495;76;21067;-55
2022/10/14 08:15:00;;;;;;;21.45;13.20;;;11.30;88.30;;;;;;1891409;76;21093;-54
2022/10/14 08:17:29;;;;;;;24.12;14.63;;;11.30;88.30;;;;;;1891551;76;21020;-53
2022/10/14 08:19:59;;;;;;;21.77;14.38;;;11.40;87.90;;;;;;1891366;76;21016;-56
2022/10/14 08:22:28;;;;;;;19.20;13.85;;;11.30;87.60;;;;;;1891414;76;21102;-56
2022/10/14 08:24:57;;;;;;;24.25;15.65;;;11.40;86.90;;;;;;1891452;76;21117;-56
2022/10/14 08:27:26;;;;;;;22.10;15.30;;;11.40;87.30;;;;;;1891406;76;21024;-56
2022/10/14 08:29:55;;;;;;;20.05;13.88;;;11.50;86.80;;;;;;1891310;75;21188;-56
2022/10/14 08:32:25;;;;;;;37.17;23.50;;;11.60;87.40;;;;;;1891323;76;21078;-55
2022/10/14 08:34:54;;;;;;;24.85;16.77;;;11.60;87.60;;;;;;1891454;76;21040;-55
2022/10/14 08:37:24;;;;;;;25.52;16.65;;;11.70;87.30;;;;;;1891303;76;21051;-55
2022/10/14 08:39:53;;;;;;;21.30;13.75;;;11.70;85.90;;;;;;1891333;76;21114;-54
2022/10/14 08:42:53;;;;;;;23.62;15.55;;;11.70;86.50;;;;;;1891345;76;21101;-56
2022/10/14 08:45:33;;;;;;;22.58;15.50;;;11.80;86.50;;;;;;1890688;75;21025;-56
2022/10/14 08:48:11;;;;;;;25.48;15.63;;;11.80;86.80;;;;;;1890883;75;21458;-57
2022/10/14 08:50:48;;;;;;;20.90;14.00;;;11.90;87.00;;;;;;1891385;76;21020;-55
2022/10/14 08:53:20;;;;;;;19.02;13.72;;;11.90;86.90;;;;;;1891471;75;21043;-56
2022/10/14 08:55:53;;;;;;;24.80;13.53;;;12.00;86.60;;;;;;1891537;76;21080;-56
2022/10/14 08:58:33;;;;;;;23.10;14.85;;;12.10;86.90;;;;;;1891373;76;21032;-56
2022/10/14 09:01:21;;;;;;;21.82;14.03;;;12.20;87.50;;;;;;1889865;75;21032;-56
2022/10/14 09:03:52;;;;;;;20.00;13.50;;;12.30;87.60;;;;;;1890891;76;21028;-57
2022/10/14 09:06:24;;;;;;;26.95;14.80;;;12.40;86.10;;;;;;1890759;75;21040;-57
2022/10/14 09:09:01;;;;;;;24.02;13.70;;;12.50;86.40;;;;;;1891083;75;21055;-57
2022/10/14 09:11:33;;;;;;;20.10;13.53;;;12.60;86.40;;;;;;1899312;74;21145;-56
2022/10/14 09:14:04;;;;;;;18.45;14.00;;;12.60;85.30;;;;;;1901598;74;21059;-57
2022/10/14 09:16:39;;;;;;;19.00;13.28;;;12.60;84.40;;;;;;1891232;75;21106;-57
2022/10/14 09:19:12;;;;;;;;;;;12.70;85.50;;;;;;1894214;76;21028;-57
2022/10/14 09:21:49;;;;;;;24.92;12.70;;;12.70;83.00;;;;;;1891397;75;20392;-57
2022/10/14 09:24:38;;;;;;;16.90;12.55;;;12.80;85.60;;;;;;1906808;74;21141;-56
2022/10/14 09:27:04;;;;;;;;;;;12.90;85.80;;;;;;1929736;74;21040;-56
2022/10/14 09:29:41;;;;;;;16.85;12.10;;;12.90;84.80;;;;;;1927996;74;20190;-54
2022/10/14 09:32:16;;;;;;;20.40;12.73;;;13.00;84.70;;;;;;1927873;74;21025;-57
2022/10/14 09:34:48;;;;;;;16.33;11.70;;;13.00;84.10;;;;;;1928362;74;21017;-56
2022/10/14 09:37:28;;;;;;;15.20;10.60;;;13.10;83.80;;;;;;1927489;74;20982;-57
2022/10/14 09:40:03;;;;;;;17.60;12.10;;;13.10;84.30;;;;;;1927633;74;21018;-57
2022/10/14 09:42:33;;;;;;;;;;;13.20;83.00;;;;;;1928365;74;21092;-56
2022/10/14 09:45:17;;;;;;;17.90;11.10;;;13.30;82.20;;;;;;1925183;74;20097;-57
2022/10/14 09:47:58;;;;;;;21.35;12.07;;;13.30;83.50;;;;;;1911511;74;21579;-57
2022/10/14 09:50:39;;;;;;;18.73;11.30;;;13.40;82.40;;;;;;1890863;75;21525;-57
2022/10/14 09:53:17;;;;;;;18.67;10.95;;;13.50;83.30;;;;;;1891243;76;21030;-57
2022/10/14 09:55:51;;;;;;;14.13;10.72;;;13.60;83.20;;;;;;1916925;74;20991;-57
2022/10/14 09:58:28;;;;;;;20.40;12.20;;;13.70;83.20;;;;;;1924256;74;21167;-57
2022/10/14 10:00:59;;;;;;;15.85;11.10;;;13.80;83.30;;;;;;1923818;74;21088;-57
2022/10/14 10:03:39;;;;;;;22.77;12.50;;;13.90;82.80;;;;;;1924435;74;21031;-57
2022/10/14 10:06:07;;;;;;;17.45;10.95;;;13.90;82.60;;;;;;1923298;74;21078;-57
2022/10/14 10:08:39;;;;;;;15.65;10.93;;;14.00;82.00;;;;;;1896224;74;21038;-57
2022/10/14 10:11:12;;;;;;;19.42;11.53;;;14.10;80.10;;;;;;1891317;76;21504;-57
2022/10/14 10:13:44;;;;;;;18.45;11.45;;;14.20;80.30;;;;;;1872985;75;21062;-56
2022/10/14 10:16:25;;;;;;;18.73;11.10;;;14.20;80.60;;;;;;1872410;76;21003;-57
2022/10/14 10:18:56;;;;;;;16.93;11.83;;;14.20;80.60;;;;;;1882117;75;21055;-57
2022/10/14 10:21:28;;;;;;;14.63;11.40;;;14.30;80.30;;;;;;1890892;75;20984;-56
2022/10/14 10:24:03;;;;;;;14.65;10.18;;;14.40;80.40;;;;;;1905505;75;21101;-57
2022/10/14 10:26:34;;;;;;;15.98;10.03;;;14.40;79.70;;;;;;1905174;75;21004;-57
2022/10/14 10:29:05;;;;;;;14.53;9.23;;;14.50;78.70;;;;;;1905110;75;21043;-57
2022/10/14 10:31:47;;;;;;;15.65;11.03;;;14.50;79.10;;;;;;1904092;75;21107;-57
2022/10/14 10:34:37;;;;;;;18.87;10.15;;;14.60;79.30;;;;;;1905405;75;21118;-57
2022/10/14 10:37:09;;;;;;;18.23;10.85;;;14.60;79.50;;;;;;1904913;74;21114;-57
2022/10/14 10:39:43;;;;;;;19.77;11.80;;;14.70;79.60;;;;;;1905278;75;21493;-57
2022/10/14 10:42:15;;;;;;;19.30;11.55;;;14.70;79.60;;;;;;1905297;74;21043;-57
2022/10/14 10:45:15;;;;;;;24.50;12.00;;;14.80;79.60;;;;;;1904379;74;21168;-57
2022/10/14 10:47:52;;;;;;;19.27;12.03;;;14.80;79.30;;;;;;1851230;74;21109;-57
2022/10/14 10:50:30;;;;;;;18.05;11.12;;;14.90;79.10;;;;;;1904810;74;21482;-57
2022/10/14 10:53:14;;;;;;;18.02;11.05;;;14.90;77.80;;;;;;1905307;75;20992;-57
2022/10/14 10:55:55;;;;;;;16.90;10.75;;;15.00;78.20;;;;;;1904129;74;21043;-57
2022/10/14 10:58:27;;;;;;;15.00;10.65;;;15.00;78.20;;;;;;1905353;75;21164;-57
2022/10/14 11:01:11;;;;;;;17.67;10.13;;;15.00;77.90;;;;;;1905137;75;20987;-56
2022/10/14 11:03:58;;;;;;;15.72;8.10;;;15.10;77.00;;;;;;1904910;74;21019;-57
2022/10/14 11:12:23;;;;;;;14.65;9.80;;;15.40;75.80;;;;;;1912407;74;21109;-54
2022/10/14 11:15:10;;;;;;;12.65;8.55;;;15.50;76.10;;;;;;1923398;74;21042;-55
2022/10/14 11:17:51;;;;;;;15.65;7.37;;;15.50;74.90;;;;;;1923992;74;21528;-54
2022/10/14 11:20:26;;;;;;;9.63;6.67;;;15.60;75.10;;;;;;1923944;74;21035;-58
2022/10/14 11:23:14;;;;;;;15.70;6.62;;;15.70;74.80;;;;;;1897026;74;21071;-56
2022/10/14 11:25:58;;;;;;;7.37;4.62;;;15.70;74.30;;;;;;1891050;75;21095;-55
2022/10/14 11:28:42;;;;;;;11.73;7.50;;;15.80;73.70;;;;;;1890558;75;21529;-53
2022/10/14 11:31:30;;;;;;;11.25;7.12;;;15.90;73.30;;;;;;1889379;75;21118;-56
2022/10/14 11:34:17;;;;;;;9.78;7.10;;;15.90;73.40;;;;;;1890973;76;21115;-53
2022/10/14 11:36:53;;;;;;;12.07;6.25;;;15.90;73.70;;;;;;1889984;75;21127;-57
2022/10/14 11:39:25;;;;;;;11.60;7.90;;;16.00;72.40;;;;;;1890352;75;21056;-53
2022/10/14 11:42:12;;;;;;;12.15;7.85;;;16.00;72.90;;;;;;1890672;75;21593;-57
2022/10/14 11:44:43;;;;;;;35.55;10.32;;;16.00;72.80;;;;;;1885700;76;21032;-57
2022/10/14 11:47:20;;;;;;;14.73;10.00;;;16.00;72.50;;;;;;1890794;75;21051;-57
2022/10/14 11:50:17;;;;;;;19.48;8.95;;;16.10;71.60;;;;;;1890681;76;20992;-56
2022/10/14 11:52:55;;;;;;;16.17;8.90;;;16.10;72.20;;;;;;1890893;76;21117;-57
2022/10/14 11:55:27;;;;;;;14.47;8.63;;;16.10;72.60;;;;;;1890408;75;21087;-58
2022/10/14 11:57:59;;;;;;;15.18;8.40;;;16.10;70.50;;;;;;1890760;76;21079;-57
2022/10/14 12:03:23;;;;;;;15.18;9.25;;;16.20;71.00;;;;;;1890628;75;21028;-57
2022/10/14 12:06:19;;;;;;;16.80;9.25;;;16.20;69.50;;;;;;1864834;75;21081;-56
2022/10/14 12:08:57;;;;;;;14.87;8.88;;;16.20;69.50;;;;;;1890844;76;21095;-55
2022/10/14 12:11:44;;;;;;;13.95;7.42;;;16.30;68.40;;;;;;1886238;75;21044;-56
2022/10/14 12:14:21;;;;;;;14.90;8.43;;;16.30;69.30;;;;;;1876014;76;21210;-57
2022/10/14 12:16:50;;;;;;;10.45;7.20;;;16.30;68.00;;;;;;1872048;76;21492;-55
2022/10/14 12:19:25;;;;;;;13.95;6.47;;;16.40;67.00;;;;;;1872195;77;21049;-56
2022/10/14 12:21:55;;;;;;;;;;;16.40;66.70;;;;;;1874309;76;21273;-49
2022/10/14 12:24:29;;;;;;;17.07;9.10;;;16.40;64.60;;;;;;1871967;75;20160;-56
2022/10/14 12:27:03;;;;;;;23.60;7.67;;;16.30;66.60;;;;;;1871774;76;21128;-55
2022/10/14 12:29:38;;;;;;;12.82;8.10;;;16.30;65.60;;;;;;1872277;77;21080;-54
2022/10/14 12:32:10;;;;;;;12.23;7.70;;;16.30;65.90;;;;;;1863756;76;21103;-50
2022/10/14 12:34:41;;;;;;;19.80;8.75;;;16.30;64.60;;;;;;1871930;77;21723;-54
2022/10/14 12:37:33;;;;;;;13.03;7.58;;;16.30;64.70;;;;;;1872239;77;21037;-56
2022/10/14 12:40:05;;;;;;;16.73;7.58;;;16.30;64.70;;;;;;1872102;77;21163;-58
2022/10/14 12:42:56;;;;;;;12.15;7.60;;;16.30;65.10;;;;;;1872243;75;21096;-57
2022/10/14 12:45:28;;;;;;;12.90;6.75;;;16.30;65.30;;;;;;1872074;76;21061;-57
2022/10/14 12:48:17;;;;;;;15.78;7.37;;;16.40;65.40;;;;;;1871356;76;21583;-58
2022/10/14 12:50:48;;;;;;;13.75;6.95;;;16.40;65.60;;;;;;1872664;76;21460;-57
2022/10/14 12:53:29;;;;;;;11.97;7.35;;;16.30;65.70;;;;;;1872789;77;21025;-57
2022/10/14 12:56:00;;;;;;;12.30;7.25;;;16.30;65.10;;;;;;1872803;75;21001;-57
2022/10/14 12:58:35;;;;;;;13.68;7.08;;;16.30;64.40;;;;;;1872658;76;21035;-58
2022/10/14 13:01:15;;;;;;;10.72;5.87;;;16.30;64.30;;;;;;1873173;76;21424;-58
2022/10/14 13:03:54;;;;;;;10.40;6.15;;;16.30;63.30;;;;;;1871767;76;21050;-57
2022/10/14 13:06:29;;;;;;;13.68;7.58;;;16.30;63.80;;;;;;1872736;76;21002;-58
2022/10/14 13:09:14;;;;;;;26.82;7.62;;;16.30;64.30;;;;;;1872785;77;21457;-58
2022/10/14 13:11:43;;;;;;;;;;;16.30;64.60;;;;;;1874538;75;21061;-58
2022/10/14 13:14:28;;;;;;;14.65;8.70;;;16.20;62.20;;;;;;1872659;75;20387;-57
2022/10/14 13:17:00;;;;;;;20.75;9.30;;;16.20;63.60;;;;;;1872792;77;21037;-57